Time;durP1;ratioP1;P1;durP2;ratioP2;P2;SDS_P1;SDS_P2;PMS_P1;PMS_P2;Temp;Humidity;BMP_temperature;BMP_pressure;BME280_temperature;BME280_humidity;BME280_pressure;Samples;Min_cycle;Max_cycle;Signal;HPM_P1;HPM_P2
2021/03/25 00:01:55;;;;;;;0.70;0.70;;;4.80;99.90;;;5.54;100.00;4186.31;5016640;28;20212;-69
2021/03/25 00:04:23;;;;;;;0.70;0.60;;;4.90;99.90;;;5.70;100.00;3928.06;5032658;28;20226;-70
2021/03/25 00:06:53;;;;;;;0.70;0.70;;;5.00;99.90;;;5.58;100.00;2610.03;5033448;28;20240;-70
2021/03/25 00:09:23;;;;;;;0.70;0.60;;;5.10;99.90;;;5.42;100.00;1210.22;5026626;28;20197;-69
2021/03/25 00:11:50;;;;;;;0.73;0.60;;;5.00;99.90;;;5.23;100.00;-305.91;5016903;28;20175;-70
2021/03/25 00:14:18;;;;;;;0.70;0.60;;;4.70;99.90;;;5.10;100.00;-1483.06;5033398;28;20189;-70
2021/03/25 00:16:46;;;;;;;0.70;0.60;;;4.60;99.90;;;5.08;100.00;-2052.44;5032592;28;20206;-70
2021/03/25 00:19:15;;;;;;;0.70;0.60;;;4.50;99.90;;;4.94;100.00;-3243.31;5030415;28;20218;-69
2021/03/25 00:21:42;;;;;;;1.75;1.35;;;4.40;99.90;;;4.95;100.00;-3934.41;5030607;28;20292;-69
2021/03/25 00:24:13;;;;;;;0.70;0.60;;;4.30;99.90;;;5.07;100.00;-4248.78;5033833;28;20194;-69
2021/03/25 00:26:42;;;;;;;7.80;1.70;;;4.40;99.90;;;4.92;100.00;-5358.53;5032312;28;20198;-70
2021/03/25 00:29:10;;;;;;;0.70;0.60;;;4.40;99.90;;;4.84;100.00;-6268.25;5029012;28;20245;-69
2021/03/25 00:31:37;;;;;;;0.80;0.80;;;4.20;99.90;;;4.74;100.00;-7052.78;5032419;28;20535;-70
2021/03/25 00:34:05;;;;;;;0.70;0.60;;;4.20;99.90;;;4.96;100.00;-7181.00;5033652;28;20214;-69
2021/03/25 00:36:32;;;;;;;0.70;0.60;;;4.40;99.90;;;4.97;100.00;-8093.13;5031327;28;20205;-69
2021/03/25 00:38:59;;;;;;;0.90;0.90;;;4.50;99.90;;;4.91;100.00;-9505.03;5033687;28;20194;-69
2021/03/25 00:41:28;;;;;;;0.70;0.60;;;4.50;99.90;;;4.93;100.00;-10127.75;5033599;28;20225;-69
2021/03/25 00:43:55;;;;;;;0.70;0.60;;;4.40;99.90;;;5.15;100.00;-10301.88;5024986;28;20198;-69
2021/03/25 00:46:22;;;;;;;0.75;0.73;;;4.50;99.90;;;4.99;100.00;-11236.38;5014689;28;20197;-70
2021/03/25 00:48:51;;;;;;;0.70;0.60;;;4.50;99.90;;;4.90;100.00;-11966.91;5033276;28;20241;-69
2021/03/25 00:51:26;;;;;;;0.80;0.70;;;4.40;99.90;;;5.07;100.00;-11954.28;5032587;28;20243;-70
2021/03/25 00:53:53;;;;;;;0.70;0.70;;;4.40;99.90;;;5.13;100.00;-12527.44;5032717;28;20186;-69
2021/03/25 00:56:20;;;;;;;0.70;0.60;;;4.50;99.90;;;4.97;100.00;-15208.97;5033944;28;20277;-70
2021/03/25 00:58:47;;;;;;;0.70;0.70;;;4.40;99.90;;;4.89;100.00;-17525.97;5062318;28;20222;-69
2021/03/25 01:01:14;;;;;;;0.80;0.70;;;4.30;99.90;;;5.01;100.00;-18030.63;5020349;28;20197;-69
2021/03/25 01:03:42;;;;;;;0.70;0.60;;;4.40;99.90;;;4.93;100.00;-18826.00;5032484;28;20214;-69
2021/03/25 01:06:09;;;;;;;0.70;0.60;;;4.40;99.90;;;4.88;100.00;-19504.94;5031752;28;20190;-69
2021/03/25 01:08:38;;;;;;;0.75;0.73;;;4.20;99.90;;;4.76;100.00;-20003.47;5033173;28;20174;-69
2021/03/25 01:11:15;;;;;;;0.70;0.60;;;4.20;99.90;;;4.78;100.00;-20458.13;5033402;28;20253;-69
2021/03/25 01:13:47;;;;;;;0.70;0.63;;;4.10;99.90;;;4.96;100.00;-20606.72;5047503;28;20209;-69
2021/03/25 01:16:26;;;;;;;0.70;0.60;;;4.20;99.90;;;5.02;100.00;-20818.75;5034600;28;20677;-69
2021/03/25 01:18:56;;;;;;;0.70;0.60;;;4.60;99.90;;;4.94;100.00;-20816.53;5035992;28;20218;-69
2021/03/25 01:21:24;;;;;;;1.52;1.42;;;4.40;99.90;;;4.84;100.00;-20814.00;5034275;28;20194;-69
2021/03/25 01:23:52;;;;;;;0.70;0.60;;;4.30;99.90;;;5.05;100.00;-20819.59;5037629;28;22062;-69
2021/03/25 01:26:22;;;;;;;1.08;0.98;;;4.40;99.90;;;5.13;100.00;-20821.81;5035654;28;20296;-69
2021/03/25 01:28:50;;;;;;;0.70;0.60;;;4.60;99.90;;;5.03;100.00;-20819.03;5035844;28;20189;-69
2021/03/25 01:31:17;;;;;;;0.70;0.63;;;4.60;99.90;;;4.94;100.00;-20816.53;5036950;28;20586;-69
2021/03/25 01:33:45;;;;;;;0.70;0.60;;;4.40;99.90;;;4.85;100.00;-20814.16;5035899;28;20213;-69
2021/03/25 01:36:13;;;;;;;1.08;0.98;;;4.30;99.90;;;4.72;100.00;-20810.69;5034549;28;20684;-69
2021/03/25 01:38:41;;;;;;;0.70;0.60;;;4.20;99.90;;;4.63;100.00;-20808.16;5036469;28;20202;-69
2021/03/25 01:41:29;;;;;;;0.70;0.70;;;4.10;99.90;;;4.81;100.00;-20813.19;5035765;28;20198;-69
2021/03/25 01:43:59;;;;;;;0.70;0.60;;;4.10;99.90;;;4.74;100.00;-20811.22;5027654;28;20668;-68
2021/03/25 01:46:29;;;;;;;0.70;0.60;;;4.20;99.90;;;4.58;100.00;-20806.91;5036763;28;20198;-68
2021/03/25 01:49:03;;;;;;;0.70;0.70;;;4.10;99.90;;;4.58;100.00;-20806.78;5035691;28;20213;-69
2021/03/25 01:51:53;;;;;;;0.70;0.60;;;4.10;99.90;;;4.62;100.00;-20807.88;5032987;28;20198;-68
2021/03/25 01:55:17;;;;;;;0.70;0.60;;;4.00;99.90;;;4.90;100.00;-20815.41;5035442;28;20194;-68
2021/03/25 01:57:58;;;;;;;0.70;0.60;;;4.20;99.90;;;4.80;100.00;-20812.91;5031819;28;20237;-68
2021/03/25 02:00:42;;;;;;;0.70;0.60;;;4.30;99.90;;;4.71;100.00;-20810.41;5034642;28;20563;-69
2021/03/25 02:04:00;;;;;;;0.70;0.60;;;4.20;99.90;;;4.65;100.00;-20808.72;5034417;28;20217;-69
2021/03/25 02:06:37;;;;;;;0.70;0.63;;;4.10;99.90;;;4.71;100.00;-20810.41;5029949;28;20667;-68
2021/03/25 02:09:18;;;;;;;1.15;1.05;;;4.10;99.90;;;4.65;100.00;-20808.72;5035347;28;20190;-68
2021/03/25 02:12:09;;;;;;;0.70;0.60;;;4.10;99.90;;;4.57;100.00;-20806.50;5051537;28;20201;-68
2021/03/25 02:14:53;;;;;;;0.73;0.70;;;4.00;99.90;;;4.65;100.00;-20808.59;5019518;28;20556;-68
2021/03/25 02:17:25;;;;;;;0.70;0.60;;;4.10;99.90;;;4.71;100.00;-20810.41;5033858;28;20309;-68
2021/03/25 02:21:11;;;;;;;0.70;0.60;;;4.10;99.90;;;4.83;100.00;-20813.75;5035185;28;20209;-68
2021/03/25 02:24:20;;;;;;;0.80;0.70;;;4.30;99.90;;;5.02;100.00;-20818.75;5028056;28;20273;-68
2021/03/25 02:27:01;;;;;;;0.70;0.70;;;4.60;99.90;;;5.06;100.00;-20819.88;5015860;28;20198;-68
2021/03/25 02:29:58;;;;;;;0.70;0.60;;;4.70;99.90;;;5.19;100.00;-20823.50;5034353;28;20193;-70
2021/03/25 02:32:31;;;;;;;0.70;0.70;;;4.80;99.90;;;5.37;100.00;-20828.34;5030256;28;20594;-68
2021/03/25 02:35:17;;;;;;;0.70;0.60;;;4.90;99.90;;;5.28;100.00;-20825.84;5033124;28;20268;-68
2021/03/25 02:37:52;;;;;;;1.25;1.15;;;5.00;99.90;;;5.21;100.00;-20824.03;5034424;28;20252;-68
2021/03/25 02:40:28;;;;;;;0.82;0.82;;;4.90;99.90;;;5.29;100.00;-20826.25;5035734;28;20253;-70
2021/03/25 02:43:07;;;;;;;0.70;0.70;;;4.80;99.90;;;5.38;100.00;-20828.50;5034273;28;20244;-70
2021/03/25 02:45:42;;;;;;;0.70;0.70;;;4.90;99.90;;;5.31;100.00;-20826.69;5034350;28;20244;-70
2021/03/25 02:48:18;;;;;;;0.70;0.60;;;4.80;99.90;;;5.20;100.00;-20823.75;5035464;28;20241;-70
2021/03/25 02:50:57;;;;;;;0.70;0.70;;;4.70;99.90;;;5.18;100.00;-20823.19;5033719;28;20267;-70
2021/03/25 02:53:29;;;;;;;0.70;0.60;;;4.60;99.90;;;5.10;100.00;-20820.97;5034612;28;20584;-69
2021/03/25 02:56:12;;;;;;;0.70;0.60;;;4.60;99.90;;;5.15;100.00;-20822.38;5034119;28;20198;-69
2021/03/25 02:58:46;;;;;;;0.70;0.70;;;4.50;99.90;;;5.17;100.00;-20822.94;5035129;28;20729;-68
2021/03/25 03:01:17;;;;;;;0.70;0.60;;;4.50;99.90;;;5.00;100.00;-20818.34;5033880;28;20186;-69
2021/03/25 03:04:01;;;;;;;0.70;0.70;;;4.40;99.90;;;4.83;100.00;-20813.75;5034083;28;20217;-69
2021/03/25 03:06:46;;;;;;;0.70;0.60;;;4.30;99.90;;;4.73;100.00;-20810.94;5033635;28;20190;-68
2021/03/25 03:09:21;;;;;;;0.70;0.60;;;4.30;99.90;;;4.65;100.00;-20808.59;5034037;28;20197;-68
2021/03/25 03:11:56;;;;;;;0.70;0.60;;;4.10;99.90;;;4.54;100.00;-20805.66;5066824;28;20233;-68
2021/03/25 03:14:36;;;;;;;0.70;0.60;;;4.10;99.90;;;4.52;100.00;-20805.09;5065777;28;20872;-69
2021/03/25 03:17:08;;;;;;;0.70;0.65;;;4.00;99.90;;;4.47;100.00;-20803.72;5033944;28;20221;-68
2021/03/25 03:19:48;;;;;;;0.70;0.60;;;3.90;99.90;;;4.52;100.00;-20805.25;5032864;28;20222;-70
2021/03/25 03:22:17;;;;;;;0.75;0.70;;;3.80;99.90;;;4.53;100.00;-20805.38;5033039;28;20186;-68
2021/03/25 03:24:54;;;;;;;1.00;0.80;;;3.80;99.90;;;4.75;100.00;-20811.50;5034273;28;20201;-69
2021/03/25 03:27:46;;;;;;;0.70;0.60;;;4.10;99.90;;;4.71;100.00;-20810.41;5034395;28;20230;-68
2021/03/25 03:30:22;;;;;;;0.70;0.60;;;4.20;99.90;;;4.78;100.00;-20812.22;5033026;28;20212;-69
2021/03/25 03:33:14;;;;;;;0.70;0.60;;;4.30;99.90;;;4.77;100.00;-20812.06;5033650;28;20722;-68
2021/03/25 03:35:52;;;;;;;0.70;0.57;;;4.30;99.90;;;4.80;100.00;-20812.91;5066213;28;20186;-68
2021/03/25 03:38:27;;;;;;;1.08;1.00;;;4.30;99.90;;;4.80;100.00;-20812.91;5032691;28;20575;-68
2021/03/25 03:41:16;;;;;;;0.70;0.70;;;4.40;99.90;;;4.91;100.00;-20815.81;5033517;28;20207;-68
2021/03/25 03:43:45;;;;;;;0.70;0.60;;;4.50;99.90;;;5.12;100.00;-20821.53;5033969;28;20183;-68
2021/03/25 03:46:17;;;;;;;1.10;1.00;;;4.80;99.90;;;5.32;100.00;-20827.09;5016222;28;20659;-68
2021/03/25 03:48:55;;;;;;;0.70;0.70;;;4.80;99.90;;;5.24;100.00;-20824.88;5034432;28;20254;-68
2021/03/25 03:51:31;;;;;;;1.15;1.05;;;4.80;99.90;;;5.23;100.00;-20824.59;5031451;28;20198;-69
2021/03/25 03:54:03;;;;;;;0.70;0.60;;;4.60;99.90;;;5.09;100.00;-20820.69;5026554;28;20200;-68
2021/03/25 03:56:38;;;;;;;0.70;0.60;;;4.50;99.90;;;4.92;100.00;-20815.97;5032295;28;20202;-68
2021/03/25 03:59:24;;;;;;;0.70;0.60;;;4.40;99.90;;;4.76;100.00;-20811.78;5024965;28;20218;-69
2021/03/25 04:01:58;;;;;;;0.70;0.60;;;4.20;99.90;;;4.63;100.00;-20808.16;5044734;28;20201;-69
2021/03/25 04:04:31;;;;;;;0.70;0.60;;;4.10;99.90;;;4.56;100.00;-20806.22;5054163;28;20209;-69
2021/03/25 04:07:27;;;;;;;0.93;0.82;;;4.00;99.90;;;4.43;100.00;-20802.75;5003848;28;20212;-69
2021/03/25 04:10:33;;;;;;;0.70;0.60;;;4.00;99.90;;;4.31;100.00;-20799.53;5025475;28;20226;-68
2021/03/25 04:13:27;;;;;;;0.80;0.75;;;3.70;99.90;;;4.33;100.00;-20799.94;5065792;28;20206;-69
2021/03/25 04:15:55;;;;;;;0.70;0.60;;;3.70;99.90;;;4.42;100.00;-20802.47;5032535;28;20190;-69
2021/03/25 04:18:37;;;;;;;0.70;0.60;;;3.70;99.90;;;4.48;100.00;-20804.00;5033599;28;20268;-69
2021/03/25 04:21:36;;;;;;;0.70;0.70;;;3.80;99.90;;;4.67;100.00;-20809.13;5030330;28;20206;-68
2021/03/25 04:24:12;;;;;;;0.70;0.60;;;3.90;99.90;;;4.94;100.00;-20816.53;5032538;28;20276;-69
2021/03/25 04:26:44;;;;;;;0.70;0.60;;;4.30;99.90;;;5.13;100.00;-20821.81;5034037;28;20166;-68
2021/03/25 04:29:21;;;;;;;0.70;0.70;;;4.50;99.90;;;5.22;100.00;-20824.31;5031741;28;20225;-68
2021/03/25 04:31:48;;;;;;;0.70;0.60;;;4.60;99.90;;;5.28;100.00;-20826.00;5028886;28;20193;-69
2021/03/25 04:34:15;;;;;;;0.70;0.60;;;4.60;99.90;;;5.33;100.00;-20827.25;5031691;28;20218;-69
2021/03/25 04:36:45;;;;;;;0.70;0.60;;;4.60;99.90;;;5.48;100.00;-20831.28;5032626;28;20202;-68
2021/03/25 04:39:17;;;;;;;0.70;0.60;;;4.70;99.90;;;5.62;100.00;-20835.16;5033159;28;20553;-68
2021/03/25 04:41:46;;;;;;;0.70;0.50;;;4.80;99.90;;;5.77;100.00;-20839.22;5033481;28;20171;-68
2021/03/25 04:44:30;;;;;;;0.70;0.60;;;4.90;99.90;;;5.76;100.00;-20839.06;5033278;28;20261;-68
2021/03/25 04:47:06;;;;;;;0.70;0.55;;;4.90;99.90;;;5.76;100.00;-20839.06;5032004;28;20558;-69
2021/03/25 04:49:39;;;;;;;0.73;0.70;;;4.90;99.90;;;5.84;100.00;-20841.00;5037547;28;20300;-69
2021/03/25 04:52:16;;;;;;;0.70;0.60;;;4.90;99.90;;;5.92;100.00;-20843.38;5037452;28;20585;-69
2021/03/25 04:54:45;;;;;;;0.70;0.60;;;5.00;99.90;;;5.96;100.00;-20844.34;5034414;28;20198;-69
2021/03/25 04:57:31;;;;;;;0.70;0.60;;;5.10;99.90;;;5.95;100.00;-20844.09;5025854;28;20654;-69
2021/03/25 05:00:06;;;;;;;0.70;0.60;;;5.00;99.90;;;5.94;100.00;-20843.94;5032377;28;20248;-69
2021/03/25 05:02:35;;;;;;;0.70;0.60;;;5.10;99.90;;;5.97;100.00;-20844.63;5031194;28;20193;-69
2021/03/25 05:05:03;;;;;;;0.70;0.60;;;5.10;99.90;;;5.97;100.00;-20844.78;5027801;28;20219;-69
2021/03/25 05:07:34;;;;;;;0.70;0.60;;;5.10;99.90;;;6.04;100.00;-20846.59;5029314;28;20277;-69
2021/03/25 05:10:12;;;;;;;0.70;0.60;;;5.10;99.90;;;6.08;100.00;-20847.56;5029929;28;20574;-69
2021/03/25 05:12:39;;;;;;;0.70;0.53;;;5.20;99.90;;;6.15;100.00;-20849.50;5031896;28;20221;-69
2021/03/25 05:15:13;;;;;;;0.70;0.60;;;5.20;99.90;;;6.13;100.00;-20849.09;5031396;28;20491;-69
2021/03/25 05:17:51;;;;;;;0.70;0.60;;;5.20;99.90;;;6.16;100.00;-20849.94;5031168;28;20198;-69
2021/03/25 05:20:22;;;;;;;0.88;0.88;;;5.20;99.90;;;6.18;100.00;-20850.34;5031671;28;20553;-69
2021/03/25 05:23:03;;;;;;;0.70;0.60;;;5.30;99.90;;;6.24;100.00;-20852.16;5031615;28;20181;-69
2021/03/25 05:25:38;;;;;;;0.70;0.60;;;5.30;99.90;;;6.23;100.00;-20851.72;5020540;28;20210;-69
2021/03/25 05:28:13;;;;;;;0.70;0.50;;;5.30;99.90;;;6.17;100.00;-20850.19;5011659;28;20193;-69
2021/03/25 05:30:41;;;;;;;0.70;0.70;;;5.30;99.90;;;6.19;100.00;-20801.66;5014157;28;20669;-69
2021/03/25 05:33:12;;;;;;;0.70;0.60;;;5.30;99.90;;;6.25;100.00;-20549.59;5013151;28;20520;-69
2021/03/25 05:35:44;;;;;;;0.70;0.50;;;5.30;99.90;;;6.22;100.00;-20317.34;5044953;28;20184;-68
2021/03/25 05:38:11;;;;;;;0.70;0.60;;;5.30;99.90;;;6.20;100.00;-20028.41;5013004;28;20199;-68
2021/03/25 05:40:48;;;;;;;0.80;0.70;;;5.30;99.90;;;6.27;100.00;-19557.41;5012497;28;20425;-69
2021/03/25 05:44:25;;;;;;;1.33;1.17;;;5.30;99.90;;;6.31;100.00;-18846.59;5027069;28;20194;-69
2021/03/25 05:47:08;;;;;;;0.70;0.60;;;5.30;99.90;;;6.34;100.00;-18010.94;4994301;28;20218;-70
2021/03/25 05:50:02;;;;;;;2.70;2.60;;;5.40;99.90;;;6.35;100.00;-16995.25;5032419;28;20278;-68
2021/03/25 05:52:44;;;;;;;0.70;0.60;;;5.40;99.90;;;6.33;100.00;-15654.88;5032921;28;20417;-69
2021/03/25 05:55:45;;;;;;;0.70;0.60;;;5.40;99.90;;;6.49;100.00;-14022.72;5028479;28;20437;-69
2021/03/25 05:58:29;;;;;;;0.70;0.60;;;5.50;99.90;;;6.45;100.00;-12543.31;5020220;28;20222;-69
2021/03/25 06:01:12;;;;;;;0.70;0.60;;;5.50;99.90;;;6.42;100.00;-11135.91;5033586;28;20484;-68
2021/03/25 06:03:46;;;;;;;0.70;0.60;;;5.50;99.90;;;6.42;100.00;-9698.44;5036119;28;20544;-68
2021/03/25 06:06:55;;;;;;;2.45;1.77;;;5.50;99.90;;;6.49;100.00;-7856.06;5036368;28;20178;-69
2021/03/25 06:09:38;;;;;;;0.70;0.60;;;5.60;99.90;;;6.60;100.00;-5924.91;5035837;28;20268;-69
2021/03/25 06:12:18;;;;;;;0.70;0.60;;;5.70;99.90;;;6.74;100.00;-3338.88;5036406;28;20200;-69
2021/03/25 06:15:09;;;;;;;0.70;0.60;;;5.80;99.90;;;6.83;100.00;-1786.69;5034529;28;20196;-68
2021/03/25 06:17:56;;;;;;;0.70;0.55;;;5.80;99.90;;;6.90;100.00;-328.63;5034664;28;20218;-69
2021/03/25 06:20:48;;;;;;;0.70;0.60;;;5.90;99.90;;;6.95;100.00;1090.09;5036315;28;20176;-68
2021/03/25 06:23:42;;;;;;;0.70;0.60;;;6.00;99.90;;;7.16;100.00;2365.94;5035027;28;20419;-69
2021/03/25 06:26:28;;;;;;;0.70;0.60;;;6.10;99.90;;;7.39;100.00;4635.00;5029107;28;20457;-69
2021/03/25 06:29:02;;;;;;;0.70;0.60;;;6.20;99.90;;;7.38;100.00;3695.91;5016040;28;20424;-69
2021/03/25 06:31:56;;;;;;;1.20;1.10;;;6.30;99.90;;;7.49;100.00;4126.63;5015882;28;20420;-69
2021/03/25 06:34:33;;;;;;;0.80;0.80;;;6.30;99.90;;;7.53;100.00;4393.38;5016049;28;20481;-69
2021/03/25 06:37:13;;;;;;;0.80;0.80;;;6.40;99.90;;;7.68;100.00;4867.75;5016199;28;20421;-69
2021/03/25 06:39:48;;;;;;;0.70;0.60;;;6.40;99.90;;;7.68;100.00;3049.16;5029852;28;20820;-69
2021/03/25 06:42:28;;;;;;;0.80;0.70;;;6.50;99.90;;;7.69;100.00;3438.56;5035754;28;20514;-69
2021/03/25 06:45:21;;;;;;;0.70;0.60;;;6.60;99.90;;;7.79;100.00;3954.66;5035081;28;20440;-69
2021/03/25 06:47:59;;;;;;;1.37;1.27;;;6.60;99.90;;;8.15;100.00;5578.53;5035906;28;20413;-69
2021/03/25 06:50:33;;;;;;;0.70;0.57;;;6.70;99.90;;;8.11;100.00;4738.13;5037371;28;20446;-69
2021/03/25 06:53:19;;;;;;;0.90;0.80;;;6.80;99.90;;;8.39;100.00;6702.00;5016301;28;20485;-69
2021/03/25 06:55:49;;;;;;;1.23;0.90;;;6.80;99.90;;;8.53;100.00;5909.00;5026038;28;20417;-69
2021/03/25 06:58:24;;;;;;;1.23;0.90;;;6.90;99.90;;;8.40;100.00;3690.94;5015840;28;20457;-69
2021/03/25 07:00:59;;;;;;;2.20;2.00;;;7.00;99.90;;;8.42;100.00;4948.72;5015261;28;20417;-69
2021/03/25 07:03:27;;;;;;;0.70;0.60;;;7.10;99.90;;;8.53;100.00;5302.63;5015499;28;20445;-69
2021/03/25 07:05:58;;;;;;;0.70;0.60;;;7.10;99.90;;;8.68;100.00;8220.78;5015687;28;20493;-69
2021/03/25 07:08:32;;;;;;;0.70;0.50;;;7.10;99.90;;;8.68;100.00;5143.84;5015349;28;20906;-69
2021/03/25 07:11:12;;;;;;;0.70;0.60;;;7.20;99.90;;;8.94;100.00;6699.03;5015624;28;20438;-69
2021/03/25 07:13:43;;;;;;;1.20;1.03;;;7.30;99.90;;;9.09;100.00;3895.91;5031962;28;20858;-69
2021/03/25 07:16:13;;;;;;;0.70;0.60;;;7.40;99.90;;;9.10;100.00;1233.59;5035009;28;20444;-69
2021/03/25 07:18:56;;;;;;;0.80;0.80;;;7.60;99.90;;;9.66;100.00;2802.25;5034952;28;20472;-70
2021/03/25 07:21:37;;;;;;;0.80;0.70;;;7.70;99.90;;;10.07;100.00;-2545.19;5035154;28;20406;-69
2021/03/25 07:24:09;;;;;;;0.70;0.60;;;7.80;99.90;;;10.03;100.00;-10331.63;5017292;28;20455;-69
2021/03/25 07:26:41;;;;;;;0.70;0.60;;;7.90;99.90;;;9.95;100.00;-10195.25;5033663;28;20426;-69
2021/03/25 07:29:29;;;;;;;1.10;0.87;;;8.10;99.90;;;10.39;100.00;-13011.84;5034517;28;20415;-70
2021/03/25 07:32:12;;;;;;;0.70;0.60;;;8.30;99.90;;;10.35;100.00;-17688.16;5034838;28;20414;-70
2021/03/25 07:34:45;;;;;;;1.47;1.37;;;8.30;99.90;;;10.43;100.00;-17587.19;5034646;28;20445;-70
2021/03/25 07:37:16;;;;;;;2.27;2.17;;;8.30;99.90;;;10.33;100.00;-17620.06;5034772;28;20892;-69
2021/03/25 07:39:48;;;;;;;0.70;0.50;;;8.50;99.90;;;10.16;100.00;-17621.50;5034582;28;20461;-70
2021/03/25 07:42:27;;;;;;;0.70;0.50;;;8.80;99.90;;;10.95;100.00;-18097.50;5034550;28;20507;-70
2021/03/25 07:45:20;;;;;;;0.97;0.97;;;8.80;99.90;;;11.13;100.00;-19915.13;5034049;28;20429;-69
2021/03/25 07:47:48;;;;;;;0.77;0.70;;;9.00;99.90;;;11.63;100.00;-20998.25;5034395;28;20773;-71
2021/03/25 07:50:27;;;;;;;0.70;0.60;;;9.20;99.90;;;11.26;100.00;-20988.28;5033580;28;20439;-71
2021/03/25 07:52:55;;;;;;;0.87;0.87;;;9.40;99.90;;;12.06;100.00;-21009.97;5033986;28;20479;-69
2021/03/25 07:55:27;;;;;;;1.00;0.90;;;9.40;99.90;;;12.17;100.00;-21012.88;5033444;28;20465;-71
2021/03/25 07:57:56;;;;;;;0.70;0.60;;;9.40;99.90;;;12.32;100.00;-21017.03;5028785;28;20502;-69
2021/03/25 08:00:29;;;;;;;0.83;0.80;;;9.50;99.90;;;12.21;100.00;-21014.13;5033046;28;20468;-72
2021/03/25 08:03:18;;;;;;;0.70;0.60;;;9.40;99.90;;;12.04;100.00;-21009.56;5033947;28;20460;-72
2021/03/25 08:05:49;;;;;;;0.73;0.63;;;9.50;99.90;;;12.09;100.00;-21010.94;5032898;28;20495;-72
2021/03/25 08:08:25;;;;;;;0.70;0.60;;;9.50;99.90;;;11.99;100.00;-21008.19;5032836;28;20444;-69
2021/03/25 08:11:13;;;;;;;1.57;1.00;;;9.50;99.90;;;12.00;100.00;-21008.31;5034878;28;20433;-70
2021/03/25 08:13:49;;;;;;;0.70;0.60;;;9.60;99.90;;;12.31;100.00;-21016.75;5032970;28;20934;-70
2021/03/25 08:16:25;;;;;;;0.83;0.80;;;9.60;99.90;;;12.06;100.00;-20003.97;5033834;28;20413;-72
2021/03/25 08:19:23;;;;;;;8.10;1.80;;;9.60;99.90;;;11.84;100.00;-14058.81;5034001;28;20514;-72
2021/03/25 08:22:32;;;;;;;0.70;0.60;;;9.60;99.90;;;12.19;100.00;-6658.31;5033993;28;20902;-70
2021/03/25 08:25:26;;;;;;;1.47;1.37;;;9.70;99.90;;;12.62;100.00;-855.56;5032094;28;20447;-70
2021/03/25 08:28:18;;;;;;;0.70;0.60;;;10.00;99.90;;;13.14;100.00;-4939.13;5034129;28;20485;-70
2021/03/25 08:31:05;;;;;;;1.13;1.03;;;10.30;99.90;;;13.71;100.00;-9242.03;5033436;28;20433;-70
2021/03/25 08:34:12;;;;;;;1.80;1.70;;;10.60;99.90;;;14.29;100.00;-11377.47;5033997;28;20453;-70
2021/03/25 08:37:08;;;;;;;0.80;0.80;;;10.70;99.90;;;14.29;100.00;-14062.38;5032442;28;20508;-69
2021/03/25 08:39:47;;;;;;;1.03;0.93;;;10.80;99.90;;;14.49;100.00;-13878.69;5029403;28;20474;-70
2021/03/25 08:42:32;;;;;;;1.00;0.90;;;11.10;99.90;;;14.48;100.00;-11308.97;5033613;28;20911;-70
2021/03/25 08:45:20;;;;;;;0.70;0.60;;;11.10;99.90;;;14.17;100.00;-5249.22;5015939;28;20537;-70
2021/03/25 08:48:01;;;;;;;0.73;0.70;;;11.30;99.90;;;14.47;100.00;5822.19;5033557;28;20452;-70
2021/03/25 08:50:48;;;;;;;0.77;0.67;;;11.30;99.90;;;14.04;100.00;11082.97;5033554;28;20419;-70
2021/03/25 08:53:41;;;;;;;1.20;1.10;;;11.20;99.90;;;14.90;100.00;20315.41;5033701;28;20887;-70
2021/03/25 08:56:25;;;;;;;0.80;0.80;;;11.60;99.90;;;16.43;100.00;2745.75;5030466;28;20759;-70
2021/03/25 08:58:57;;;;;;;1.20;1.10;;;12.00;99.90;;;15.56;100.00;-16176.31;5046640;28;20496;-70
2021/03/25 09:01:34;;;;;;;0.90;0.90;;;12.40;99.90;;;15.67;100.00;-2243.88;5032292;28;20447;-69
2021/03/25 09:04:05;;;;;;;0.80;0.70;;;12.80;99.90;;;16.52;100.00;-17733.72;5031890;28;20447;-70
2021/03/25 09:06:37;;;;;;;0.80;0.70;;;13.00;99.90;;;17.86;100.00;-21166.28;5033839;28;20390;-70
2021/03/25 09:09:43;;;;;;;0.80;0.70;;;13.10;99.90;;;17.59;100.00;-21159.13;5033344;28;20504;-70
2021/03/25 09:12:15;;;;;;;1.00;0.90;;;13.00;99.90;;;18.40;100.00;-21180.78;5032345;28;20429;-70
2021/03/25 09:14:43;;;;;;;1.10;1.00;;;12.70;99.90;;;18.23;100.00;-21176.28;5032848;28;20920;-71
2021/03/25 09:17:16;;;;;;;3.13;1.80;;;12.80;99.90;;;17.90;100.00;-21167.25;5033464;28;20453;-70
2021/03/25 09:19:48;;;;;;;0.70;0.70;;;13.10;99.90;;;17.21;100.00;-21148.72;5033154;28;20515;-70
2021/03/25 09:23:00;;;;;;;0.80;0.80;;;12.90;99.90;;;17.03;100.00;-21144.06;5033488;28;20398;-70
2021/03/25 09:25:38;;;;;;;1.60;1.23;;;13.50;99.90;;;16.70;100.00;-21135.00;5033257;28;20448;-70
2021/03/25 09:28:19;;;;;;;1.97;1.00;;;13.70;99.90;;;16.53;100.00;-21130.47;5032959;28;20429;-70
2021/03/25 09:31:14;;;;;;;1.03;0.93;;;13.70;99.90;;;16.28;100.00;-21123.75;5032102;28;20406;-70
2021/03/25 09:33:49;;;;;;;1.00;0.90;;;13.80;99.90;;;16.30;100.00;-21124.44;5028273;28;20963;-70
2021/03/25 09:36:41;;;;;;;3.30;1.97;;;14.00;99.90;;;18.29;100.00;-21177.78;5034319;28;20392;-72
2021/03/25 09:39:28;;;;;;;0.80;0.77;;;13.80;99.90;;;18.40;100.00;-21180.66;5031319;28;20844;-71
2021/03/25 09:41:59;;;;;;;0.87;0.87;;;13.50;99.90;;;17.88;100.00;-21166.69;5036586;28;20437;-70
2021/03/25 09:44:47;;;;;;;0.70;0.70;;;13.70;99.90;;;17.53;100.00;-21157.38;5027868;28;20432;-71
2021/03/25 09:47:32;;;;;;;1.17;1.07;;;14.40;99.90;;;17.94;100.00;-21168.47;5036495;28;20399;-69
2021/03/25 09:50:22;;;;;;;1.10;0.93;;;14.40;99.90;;;17.83;100.00;-21165.59;5036952;28;20429;-70
2021/03/25 09:53:11;;;;;;;2.07;1.97;;;14.90;99.90;;;18.70;100.00;-21188.88;5036755;28;20420;-70
2021/03/25 09:56:00;;;;;;;1.10;1.00;;;14.80;99.90;;;20.22;100.00;-21229.63;5036269;28;20400;-70
2021/03/25 09:58:47;;;;;;;2.33;1.87;;;14.40;99.90;;;19.08;100.00;-21198.88;5036822;28;20760;-69
2021/03/25 10:01:51;;;;;;;5.10;1.90;;;14.70;99.90;;;19.55;100.00;-21211.72;5036649;28;20728;-70
2021/03/25 10:04:34;;;;;;;1.03;0.80;;;14.80;99.90;;;19.40;100.00;-21207.63;5034586;28;20419;-70
2021/03/25 10:07:37;;;;;;;1.33;1.10;;;14.30;99.90;;;18.66;100.00;-21187.78;5036072;28;20475;-70
2021/03/25 10:10:33;;;;;;;2.10;2.00;;;14.50;99.90;;;17.54;100.00;-21157.63;5016769;28;20464;-70
2021/03/25 10:13:38;;;;;;;0.80;0.80;;;14.70;99.90;;;18.43;100.00;-21181.47;5028461;28;20896;-70
2021/03/25 10:16:09;;;;;;;1.03;0.93;;;15.20;99.90;;;19.05;100.00;-21198.19;5033500;28;20440;-70
2021/03/25 10:18:53;;;;;;;0.80;0.70;;;15.20;99.90;;;19.46;100.00;-21209.13;5036240;28;20997;-70
2021/03/25 10:21:56;;;;;;;1.77;1.33;;;15.50;99.90;;;20.27;100.00;-21231.00;5036345;28;20884;-72
2021/03/25 10:24:29;;;;;;;0.90;0.83;;;15.20;99.50;;;20.28;100.00;-21231.25;5036075;28;20924;-72
2021/03/25 10:27:37;;;;;;;1.00;0.90;;;15.60;98.20;;;20.42;100.00;-21234.81;5035935;28;20773;-71
2021/03/25 10:30:30;;;;;;;0.70;0.60;;;15.60;98.00;;;20.01;100.00;-21224.03;5032535;28;20545;-71
2021/03/25 10:32:58;;;;;;;1.17;1.07;;;15.40;97.10;;;19.57;100.00;-21212.13;5036236;28;20517;-69
2021/03/25 10:35:33;;;;;;;3.20;2.33;;;15.20;96.30;;;19.64;100.00;-21214.06;5034861;28;20483;-70
2021/03/25 10:38:08;;;;;;;1.50;1.40;;;15.50;94.10;;;19.05;100.00;-21198.31;5034900;28;20414;-70
2021/03/25 10:40:40;;;;;;;1.00;0.90;;;15.70;96.00;;;19.49;100.00;-21209.94;5034732;28;20431;-70
2021/03/25 10:43:14;;;;;;;1.00;0.80;;;15.00;97.00;;;18.85;100.00;-21192.72;5035382;28;20561;-70
2021/03/25 10:45:50;;;;;;;0.80;0.80;;;14.60;97.90;;;17.63;100.00;-21160.25;5035652;28;20411;-71
2021/03/25 10:48:30;;;;;;;0.70;0.60;;;14.40;98.20;;;18.05;100.00;-21171.34;5034685;28;20456;-70
2021/03/25 10:51:05;;;;;;;0.70;0.70;;;14.40;99.00;;;17.32;100.00;-21151.88;5035946;28;20478;-72
2021/03/25 10:53:36;;;;;;;1.20;1.10;;;14.90;99.90;;;18.10;100.00;-21172.72;5035846;28;20826;-72
2021/03/25 10:56:16;;;;;;;1.20;1.10;;;15.00;98.00;;;17.83;100.00;-21165.59;5035861;28;20798;-72
2021/03/25 10:58:53;;;;;;;0.80;0.80;;;14.60;98.10;;;18.03;100.00;-21170.78;5035864;28;20943;-72
2021/03/25 11:01:25;;;;;;;1.40;1.30;;;14.90;99.20;;;18.93;100.00;-21194.91;5017743;28;20432;-71
2021/03/25 11:03:52;;;;;;;0.80;0.70;;;15.60;97.40;;;18.81;100.00;-21191.88;5034707;28;20551;-72
2021/03/25 11:06:29;;;;;;;0.97;0.87;;;15.50;94.90;;;18.71;100.00;-21189.00;5035382;28;20417;-72
2021/03/25 11:09:06;;;;;;;1.07;0.80;;;14.80;96.10;;;17.94;100.00;-21168.34;5035369;28;20963;-72